createdAt,value
2017-11-01T00:02:11.689Z,78.00
2017-11-01T00:04:39.190Z,78.40
2017-11-01T00:07:06.826Z,78.50
2017-11-01T00:09:34.322Z,78.40
2017-11-01T00:12:02.617Z,78.50
2017-11-01T00:14:30.105Z,78.40
2017-11-01T00:16:57.627Z,78.30
2017-11-01T00:19:25.110Z,77.60
2017-11-01T00:21:52.656Z,78.10
2017-11-01T00:24:20.905Z,78.20
2017-11-01T00:26:48.389Z,78.20
2017-11-01T00:29:15.912Z,78.70
2017-11-01T00:31:43.398Z,77.80
2017-11-01T00:34:10.937Z,78.20
2017-11-01T00:36:39.186Z,78.60
2017-11-01T00:39:06.716Z,78.50
2017-11-01T00:41:34.213Z,78.40
2017-11-01T00:44:01.730Z,79.20
2017-11-01T00:46:29.981Z,78.60
2017-11-01T00:48:57.491Z,78.60
2017-11-01T00:51:24.993Z,78.80
2017-11-01T00:53:52.510Z,78.80
2017-11-01T00:56:20.002Z,79.30
2017-11-01T00:58:47.542Z,79.10
2017-11-01T01:01:15.023Z,79.30
2017-11-01T01:03:42.506Z,79.20
2017-11-01T01:06:10.026Z,79.40
2017-11-01T01:08:37.509Z,78.70
2017-11-01T01:11:05.034Z,79.00
2017-11-01T01:13:32.521Z,79.10
2017-11-01T01:16:00.036Z,79.30
2017-11-01T01:18:27.520Z,79.80
2017-11-01T01:20:55.057Z,79.90
2017-11-01T01:23:22.541Z,79.80
2017-11-01T01:25:50.032Z,80.10
2017-11-01T01:28:17.552Z,80.30
2017-11-01T01:30:45.048Z,80.30
2017-11-01T01:33:12.573Z,80.20
2017-11-01T01:35:40.829Z,80.30
2017-11-01T01:38:08.344Z,80.30
2017-11-01T01:40:36.598Z,80.00
2017-11-01T01:43:04.128Z,80.00
2017-11-01T01:45:31.624Z,80.30
2017-11-01T01:47:59.110Z,80.40
2017-11-01T01:50:26.629Z,80.40
2017-11-01T01:52:54.117Z,81.10
2017-11-01T01:55:21.633Z,80.40
2017-11-01T01:57:49.122Z,80.50
2017-11-01T02:00:17.413Z,80.30
2017-11-01T02:02:45.697Z,80.10
2017-11-01T02:05:13.985Z,80.30
2017-11-01T02:07:42.245Z,80.50
2017-11-01T02:10:09.950Z,80.50
2017-11-01T02:12:38.204Z,80.80
2017-11-01T02:15:05.690Z,80.70
2017-11-01T02:17:33.212Z,80.80
2017-11-01T02:20:00.695Z,81.10
2017-11-01T02:22:28.214Z,81.60
2017-11-01T02:24:55.708Z,81.60
2017-11-01T02:27:24.017Z,81.80
2017-11-01T02:29:51.513Z,81.80
2017-11-01T02:32:19.036Z,81.80
2017-11-01T02:34:47.293Z,81.60
2017-11-01T02:37:14.832Z,81.60
2017-11-01T02:39:42.313Z,81.00
2017-11-01T02:42:09.797Z,80.90
2017-11-01T02:47:28.563Z,80.70
2017-11-01T02:49:56.101Z,80.40
2017-11-01T02:52:24.366Z,80.60
2017-11-01T02:54:51.900Z,80.50
2017-11-01T02:57:19.395Z,80.80
2017-11-01T02:59:46.923Z,81.00
2017-11-01T03:02:14.434Z,80.90
2017-11-01T03:04:41.970Z,81.10
2017-11-01T03:07:09.455Z,80.70
2017-11-01T03:09:36.950Z,80.60
2017-11-01T03:12:04.473Z,80.50
2017-11-01T03:14:31.959Z,80.60
2017-11-01T03:16:59.485Z,80.50
2017-11-01T03:19:26.982Z,80.50
2017-11-01T03:21:54.514Z,80.80
2017-11-01T03:24:22.007Z,80.80
2017-11-01T03:26:49.535Z,81.30
2017-11-01T03:29:17.030Z,80.70
2017-11-01T03:31:44.570Z,80.80
2017-11-01T03:34:12.075Z,80.80
2017-11-01T03:36:39.574Z,80.90
2017-11-01T03:39:07.103Z,81.00
2017-11-01T03:41:34.594Z,81.20
2017-11-01T03:44:02.122Z,81.10
2017-11-01T03:46:29.615Z,81.20
2017-11-01T03:48:57.144Z,81.20
2017-11-01T03:51:24.637Z,81.30
2017-11-01T03:53:52.166Z,81.40
2017-11-01T03:56:19.651Z,81.30
2017-11-01T03:58:47.978Z,81.30
2017-11-01T04:01:15.491Z,81.40
2017-11-01T04:03:43.491Z,81.20
2017-11-01T04:06:11.795Z,81.10
2017-11-01T04:08:39.282Z,81.10
2017-11-01T04:11:06.818Z,81.00
2017-11-01T04:13:34.315Z,81.10
2017-11-01T04:16:01.839Z,80.70
2017-11-01T04:18:33.797Z,81.00
2017-11-01T04:21:01.319Z,81.10
2017-11-01T04:23:29.582Z,81.10
2017-11-01T04:25:57.111Z,81.10
2017-11-01T04:28:24.608Z,81.20
2017-11-01T04:30:52.136Z,81.30
2017-11-01T04:33:19.630Z,81.50
2017-11-01T04:35:47.982Z,81.40
2017-11-01T04:38:16.250Z,81.60
2017-11-01T04:40:43.742Z,81.60
2017-11-01T04:43:12.031Z,81.80
2017-11-01T04:45:40.290Z,81.40
2017-11-01T04:48:07.814Z,82.10
2017-11-01T04:50:35.310Z,81.50
2017-11-01T04:53:02.841Z,81.40
2017-11-01T04:55:31.099Z,81.20
2017-11-01T04:57:58.632Z,81.20
2017-11-01T05:00:27.047Z,81.20
2017-11-01T05:02:58.364Z,81.10
2017-11-01T05:05:28.808Z,80.70
2017-11-01T05:07:56.318Z,80.60
2017-11-01T05:10:23.843Z,80.10
2017-11-01T05:12:52.994Z,79.90
2017-11-01T05:15:20.520Z,79.90
2017-11-01T05:17:48.782Z,79.70
2017-11-01T05:20:16.307Z,79.70
2017-11-01T05:22:43.795Z,79.80
2017-11-01T05:28:13.934Z,79.50
2017-11-01T05:30:42.226Z,79.50
2017-11-01T05:33:09.719Z,79.50
2017-11-01T05:35:37.247Z,79.50
2017-11-01T05:38:04.738Z,79.70
2017-11-01T05:40:33.050Z,79.90
2017-11-01T05:43:00.547Z,79.90
2017-11-01T05:45:28.058Z,80.20
2017-11-01T05:47:56.355Z,80.80
2017-11-01T05:50:24.614Z,80.50
2017-11-01T05:52:52.138Z,80.50
2017-11-01T05:55:19.635Z,80.40
2017-11-01T05:57:47.167Z,80.40
2017-11-01T06:00:15.428Z,80.40
2017-11-01T06:02:42.958Z,80.40
2017-11-01T06:05:10.466Z,80.30
2017-11-01T06:07:38.418Z,80.50
2017-11-01T06:10:05.911Z,80.40
2017-11-01T06:12:33.453Z,80.10
2017-11-01T06:15:00.986Z,79.90
2017-11-01T06:17:29.247Z,79.50
2017-11-01T06:19:56.766Z,79.50
2017-11-01T06:22:24.266Z,79.50
2017-11-01T06:24:51.798Z,79.30
2017-11-01T06:27:20.055Z,79.50
2017-11-01T06:29:47.589Z,79.50
2017-11-01T06:32:15.127Z,79.50
2017-11-01T06:34:43.390Z,79.50
2017-11-01T06:37:10.918Z,79.50
2017-11-01T06:39:38.410Z,79.50
2017-11-01T06:42:05.934Z,79.40
2017-11-01T06:44:34.191Z,78.90
2017-11-01T06:47:01.723Z,78.90
2017-11-01T06:49:29.218Z,78.80
2017-11-01T06:51:56.758Z,78.40
2017-11-01T06:54:26.052Z,78.30
2017-11-01T06:56:54.307Z,78.40
2017-11-01T06:59:21.834Z,78.50
2017-11-01T07:01:49.335Z,78.40
2017-11-01T07:04:16.864Z,78.30
2017-11-01T07:06:44.354Z,77.80
2017-11-01T07:09:11.878Z,77.60
2017-11-01T07:11:39.379Z,77.40
2017-11-01T07:14:06.921Z,77.30
2017-11-01T07:16:35.183Z,77.50
2017-11-01T07:19:02.711Z,76.90
2017-11-01T07:21:30.206Z,76.10
2017-11-01T07:23:57.750Z,76.20
2017-11-01T07:26:25.594Z,76.20
2017-11-01T07:28:53.094Z,75.70
2017-11-01T07:31:21.394Z,74.40
2017-11-01T07:33:48.889Z,74.30
2017-11-01T07:36:16.418Z,73.30
2017-11-01T07:38:44.691Z,72.60
2017-11-01T07:41:12.234Z,72.40
2017-11-01T07:43:39.741Z,72.30
2017-11-01T07:46:08.043Z,72.80
2017-11-01T07:48:36.303Z,73.00
2017-11-01T07:51:03.833Z,73.00
2017-11-01T07:53:31.334Z,72.90
2017-11-01T07:55:58.879Z,72.60
2017-11-01T07:58:26.375Z,71.80
2017-11-01T08:00:54.642Z,71.00
2017-11-01T08:03:22.170Z,71.00
2017-11-01T08:05:50.431Z,66.80
2017-11-01T08:08:17.959Z,66.20
2017-11-01T08:10:45.447Z,61.50
2017-11-01T08:13:12.994Z,59.40
2017-11-01T08:15:40.486Z,58.70
2017-11-01T08:18:08.015Z,57.20
2017-11-01T08:20:36.274Z,54.20
2017-11-01T08:23:03.799Z,53.80
2017-11-01T08:25:31.296Z,50.90
2017-11-01T08:27:58.843Z,51.50
2017-11-01T08:30:26.351Z,52.20
2017-11-01T08:32:53.900Z,52.40
2017-11-01T08:35:21.395Z,51.40
2017-11-01T08:37:48.902Z,49.50
2017-11-01T08:40:16.445Z,48.80
2017-11-01T08:42:43.990Z,48.70
2017-11-01T08:45:11.527Z,48.00
2017-11-01T08:47:39.037Z,48.80
2017-11-01T08:50:06.580Z,48.30
2017-11-01T08:52:34.086Z,49.60
2017-11-01T08:55:01.670Z,50.70
2017-11-01T08:57:29.170Z,51.40
2017-11-01T08:59:56.668Z,50.80
2017-11-01T09:02:24.229Z,49.10
2017-11-01T09:04:52.505Z,46.70
2017-11-01T09:07:20.043Z,46.70
2017-11-01T09:09:47.544Z,47.20
2017-11-01T09:12:15.075Z,47.50
2017-11-01T09:14:42.584Z,48.00
2017-11-01T09:17:10.135Z,49.70
2017-11-01T09:19:37.634Z,49.40
2017-11-01T09:22:05.127Z,48.30
2017-11-01T09:24:33.427Z,44.80
2017-11-01T09:27:00.954Z,44.80
2017-11-01T09:29:28.479Z,44.70
2017-11-01T09:31:55.987Z,43.80
2017-11-01T09:34:23.520Z,44.10
2017-11-01T09:36:51.026Z,43.70
2017-11-01T09:39:18.567Z,43.10
2017-11-01T09:41:46.067Z,42.10
2017-11-01T09:44:13.611Z,41.50
2017-11-01T09:46:41.106Z,41.60
2017-11-01T09:49:08.598Z,39.60
2017-11-01T09:51:36.134Z,38.50
2017-11-01T09:54:03.641Z,39.10
2017-11-01T09:56:31.178Z,39.00
2017-11-01T09:58:58.679Z,37.60
2017-11-01T10:01:26.215Z,37.20
2017-11-01T10:03:53.714Z,36.50
2017-11-01T10:06:21.243Z,36.50
2017-11-01T10:08:48.739Z,37.60
2017-11-01T10:11:16.271Z,39.00
2017-11-01T10:13:44.546Z,40.10
2017-11-01T10:16:12.123Z,40.10
2017-11-01T10:18:39.616Z,39.10
2017-11-01T10:21:07.125Z,38.30
2017-11-01T10:23:34.664Z,38.20
2017-11-01T10:26:02.171Z,38.80
2017-11-01T10:28:29.699Z,39.40
2017-11-01T10:30:57.199Z,39.60
2017-11-01T10:33:24.735Z,38.40
2017-11-01T10:35:53.020Z,37.90
2017-11-01T10:38:21.330Z,37.50
2017-11-01T10:40:48.817Z,37.50
2017-11-01T10:43:16.315Z,39.30
2017-11-01T10:45:43.852Z,40.20
2017-11-01T10:48:11.357Z,40.30
2017-11-01T10:50:38.899Z,41.70
2017-11-01T10:53:06.398Z,41.90
2017-11-01T10:55:33.930Z,42.00
2017-11-01T10:58:01.430Z,44.30
2017-11-01T11:00:28.988Z,46.70
2017-11-01T11:02:56.488Z,48.20
2017-11-01T11:05:24.031Z,50.40
2017-11-01T11:07:51.522Z,51.50
2017-11-01T11:10:19.017Z,52.70
2017-11-01T11:12:46.542Z,53.00
2017-11-01T11:15:14.043Z,53.70
2017-11-01T11:17:41.575Z,53.60
2017-11-01T11:20:09.074Z,53.80
2017-11-01T11:22:36.611Z,54.80
2017-11-01T11:25:04.110Z,55.40
2017-11-01T11:27:31.642Z,55.50
2017-11-01T11:29:59.911Z,55.70
2017-11-01T11:32:27.463Z,55.70
2017-11-01T11:34:54.958Z,54.90
2017-11-01T11:37:22.498Z,54.80
2017-11-01T11:39:49.994Z,56.20
2017-11-01T11:42:17.545Z,56.40
2017-11-01T11:44:45.063Z,56.20
2017-11-01T11:47:13.331Z,56.80
2017-11-01T11:49:40.871Z,56.80
2017-11-01T11:52:08.367Z,56.50
2017-11-01T11:54:35.907Z,56.20
2017-11-01T11:57:03.407Z,56.60
2017-11-01T11:59:30.940Z,57.30
2017-11-01T12:01:59.208Z,57.10
2017-11-01T12:04:26.742Z,57.10
2017-11-01T12:06:54.253Z,57.40
2017-11-01T12:09:21.763Z,57.30
2017-11-01T12:11:49.304Z,57.10
2017-11-01T12:14:16.806Z,56.90
2017-11-01T12:16:44.335Z,57.40
2017-11-01T12:19:11.835Z,57.60
2017-11-01T12:21:39.401Z,57.50
2017-11-01T12:24:06.894Z,57.70
2017-11-01T12:26:34.436Z,57.70
2017-11-01T12:29:01.935Z,57.10
2017-11-01T12:31:29.484Z,57.30
2017-11-01T12:33:56.982Z,57.30
2017-11-01T12:36:24.478Z,57.00
2017-11-01T12:38:52.003Z,57.20
2017-11-01T12:41:19.494Z,56.80
2017-11-01T12:43:47.036Z,56.90
2017-11-01T12:46:14.539Z,56.60
2017-11-01T12:48:42.080Z,57.20
2017-11-01T12:51:09.582Z,57.40
2017-11-01T12:53:37.122Z,56.70
2017-11-01T12:56:04.632Z,56.50
2017-11-01T12:58:32.199Z,56.50
2017-11-01T13:00:59.698Z,56.20
2017-11-01T13:03:27.258Z,56.30
2017-11-01T13:05:54.755Z,56.50
2017-11-01T13:08:23.022Z,56.40
2017-11-01T13:10:50.555Z,56.40
2017-11-01T13:13:18.051Z,56.00
2017-11-01T13:15:45.594Z,56.20
2017-11-01T13:18:13.095Z,56.00
2017-11-01T13:20:40.623Z,55.60
2017-11-01T13:23:08.119Z,55.80
2017-11-01T13:25:35.683Z,55.50
2017-11-01T13:28:03.182Z,55.90
2017-11-01T13:30:30.732Z,55.60
2017-11-01T13:32:58.290Z,55.60
2017-11-01T13:35:25.792Z,55.60
2017-11-01T13:37:53.323Z,55.60
2017-11-01T13:40:20.823Z,55.80
2017-11-01T13:42:48.371Z,56.00
2017-11-01T13:45:15.895Z,55.10
2017-11-01T13:47:43.434Z,55.00
2017-11-01T13:50:10.936Z,55.00
2017-11-01T13:52:38.491Z,55.10
2017-11-01T13:55:05.991Z,55.10
2017-11-01T13:57:33.523Z,55.00
2017-11-01T14:00:01.022Z,55.50
2017-11-01T14:02:28.568Z,55.30
2017-11-01T14:04:56.067Z,55.00
2017-11-01T14:07:23.566Z,55.30
2017-11-01T14:09:51.858Z,55.00
2017-11-01T14:12:19.363Z,55.00
2017-11-01T14:14:46.891Z,55.00
2017-11-01T14:17:15.166Z,55.10
2017-11-01T14:19:42.707Z,55.10
2017-11-01T14:22:10.207Z,55.10
2017-11-01T14:24:37.735Z,55.60
2017-11-01T14:27:05.243Z,56.20
2017-11-01T14:29:32.783Z,56.90
2017-11-01T14:32:00.283Z,57.50
2017-11-01T14:34:27.827Z,57.20
2017-11-01T14:36:55.327Z,57.60
2017-11-01T14:39:22.826Z,57.30
2017-11-01T14:41:51.122Z,57.50
2017-11-01T14:44:19.386Z,57.50
2017-11-01T14:46:46.918Z,57.50
2017-11-01T14:49:14.422Z,57.70
2017-11-01T14:51:41.950Z,57.80
2017-11-01T14:54:09.446Z,57.90
2017-11-01T14:56:36.975Z,57.90
2017-11-01T14:59:04.475Z,58.00
2017-11-01T15:01:32.002Z,58.20
2017-11-01T15:04:00.262Z,58.30
2017-11-01T15:06:27.791Z,58.30
2017-11-01T15:08:55.290Z,59.30
2017-11-01T15:11:22.828Z,58.90
2017-11-01T15:13:50.339Z,59.30
2017-11-01T15:16:17.887Z,59.60
2017-11-01T15:18:45.387Z,59.80
2017-11-01T15:21:12.919Z,60.00
2017-11-01T15:23:40.454Z,60.30
2017-11-01T15:26:07.956Z,60.60
2017-11-01T15:28:35.498Z,61.10
2017-11-01T15:31:03.004Z,61.40
2017-11-01T15:33:30.535Z,61.90
2017-11-01T15:35:58.036Z,62.40
2017-11-01T15:38:26.359Z,62.60
2017-11-01T15:40:53.878Z,62.60
2017-11-01T15:43:22.143Z,63.50
2017-11-01T15:45:49.679Z,63.50
2017-11-01T15:48:17.948Z,64.70
2017-11-01T15:50:45.492Z,64.70
2017-11-01T15:53:13.002Z,65.20
2017-11-01T15:55:40.538Z,66.00
2017-11-01T15:58:08.143Z,66.80
2017-11-01T16:00:35.670Z,67.40
2017-11-01T16:03:03.174Z,68.30
2017-11-01T16:05:31.498Z,69.80
2017-11-01T16:07:59.006Z,69.80
2017-11-01T16:10:26.537Z,70.70
2017-11-01T16:12:54.078Z,71.70
2017-11-01T16:15:22.347Z,73.30
2017-11-01T16:17:49.883Z,73.20
2017-11-01T16:20:17.383Z,73.60
2017-11-01T16:22:44.918Z,74.10
2017-11-01T16:25:12.419Z,74.80
2017-11-01T16:27:40.003Z,75.50
2017-11-01T16:30:07.510Z,75.90
2017-11-01T16:32:35.042Z,76.10
2017-11-01T16:35:02.553Z,76.90
2017-11-01T16:37:30.090Z,77.50
2017-11-01T16:39:57.586Z,78.00
2017-11-01T16:42:25.144Z,77.60
2017-11-01T16:44:53.402Z,77.70
2017-11-01T16:47:20.898Z,77.70
2017-11-01T16:49:48.434Z,77.70
2017-11-01T16:52:15.953Z,77.90
2017-11-01T16:54:44.251Z,78.10
2017-11-01T16:57:12.515Z,77.90
2017-11-01T16:59:40.055Z,77.80
2017-11-01T17:02:07.559Z,77.30
2017-11-01T17:04:35.131Z,76.80
2017-11-01T17:07:02.639Z,76.40
2017-11-01T17:09:30.147Z,75.80
2017-11-01T17:11:58.013Z,75.60
2017-11-01T17:14:25.514Z,75.30
2017-11-01T17:16:53.058Z,75.40
2017-11-01T17:19:21.324Z,76.20
2017-11-01T17:21:48.866Z,76.10
2017-11-01T17:24:17.132Z,77.20
2017-11-01T17:26:44.671Z,77.10
2017-11-01T17:29:12.179Z,77.40
2017-11-01T17:31:39.887Z,77.70
2017-11-01T17:34:08.159Z,78.20
2017-11-01T17:36:35.669Z,78.20
2017-11-01T17:39:03.987Z,77.30
2017-11-01T17:41:31.495Z,77.30
2017-11-01T17:43:59.036Z,77.30
2017-11-01T17:46:26.556Z,77.60
2017-11-01T17:48:54.863Z,77.80
2017-11-01T17:51:22.366Z,77.80
2017-11-01T17:53:49.912Z,78.20
2017-11-01T17:56:17.418Z,78.30
2017-11-01T17:58:44.960Z,78.40
2017-11-01T18:01:12.458Z,78.40
2017-11-01T18:03:40.003Z,78.20
2017-11-01T18:06:07.541Z,78.30
2017-11-01T18:08:35.810Z,79.60
2017-11-01T18:11:03.352Z,79.60
2017-11-01T18:13:30.855Z,79.70
2017-11-01T18:15:58.399Z,79.70
2017-11-01T18:18:25.897Z,79.30
2017-11-01T18:20:53.400Z,79.60
2017-11-01T18:23:20.944Z,79.40
2017-11-01T18:25:48.434Z,79.20
2017-11-01T18:28:16.738Z,79.40
2017-11-01T18:30:44.233Z,79.40
2017-11-01T18:33:11.781Z,79.30
2017-11-01T18:35:39.283Z,79.30
2017-11-01T18:38:06.818Z,79.40
2017-11-01T18:40:34.314Z,79.30
2017-11-01T18:43:01.851Z,79.20
2017-11-01T18:45:30.128Z,79.10
2017-11-01T18:47:58.399Z,79.20
2017-11-01T18:50:25.942Z,79.20
2017-11-01T18:52:53.444Z,79.00
2017-11-01T18:55:20.991Z,79.00
2017-11-01T18:57:48.488Z,79.30
2017-11-01T19:00:16.106Z,79.80
2017-11-01T19:02:43.607Z,80.20
2017-11-01T19:05:11.157Z,80.60
2017-11-01T19:07:38.654Z,80.70
2017-11-01T19:10:06.203Z,81.70
2017-11-01T19:12:33.710Z,81.30
2017-11-01T19:15:01.260Z,81.60
2017-11-01T19:17:28.759Z,81.70
2017-11-01T19:19:56.296Z,81.80
2017-11-01T19:22:23.794Z,82.10
2017-11-01T19:24:51.295Z,82.00
2017-11-01T19:27:18.831Z,81.80
2017-11-01T19:29:46.326Z,81.70
2017-11-01T19:32:13.876Z,81.50
2017-11-01T19:34:41.386Z,80.80
2017-11-01T19:37:09.827Z,79.30
2017-11-01T19:39:37.332Z,79.30
2017-11-01T19:42:05.027Z,79.10
2017-11-01T19:44:33.299Z,77.50
2017-11-01T19:47:00.794Z,77.40
2017-11-01T19:49:29.103Z,77.00
2017-11-01T19:51:56.627Z,77.00
2017-11-01T19:54:24.171Z,75.50
2017-11-01T19:56:51.686Z,75.00
2017-11-01T19:59:19.231Z,74.30
2017-11-01T20:01:46.757Z,73.90
2017-11-01T20:04:14.303Z,73.70
2017-11-01T20:06:42.570Z,74.30
2017-11-01T20:09:10.163Z,73.60
2017-11-01T20:11:38.431Z,74.00
2017-11-01T20:14:06.883Z,74.00
2017-11-01T20:16:34.390Z,73.90
2017-11-01T20:19:01.887Z,74.00
2017-11-01T20:21:29.438Z,73.70
2017-11-01T20:23:56.970Z,73.80
2017-11-01T20:26:24.522Z,73.80
2017-11-01T20:28:52.041Z,73.70
2017-11-01T20:31:19.577Z,73.80
2017-11-01T20:33:47.084Z,73.70
2017-11-01T20:36:14.638Z,73.80
2017-11-01T20:38:42.143Z,73.70
2017-11-01T20:41:09.687Z,73.60
2017-11-01T20:43:37.195Z,73.10
2017-11-01T20:46:04.891Z,73.30
2017-11-01T20:48:32.396Z,73.30
2017-11-01T20:50:59.905Z,73.20
2017-11-01T20:53:27.447Z,73.20
2017-11-01T20:55:54.956Z,72.90
2017-11-01T20:58:22.507Z,73.20
2017-11-01T21:00:50.015Z,73.30
2017-11-01T21:03:18.331Z,72.60
2017-11-01T21:05:45.836Z,72.60
2017-11-01T21:08:13.526Z,72.30
2017-11-01T21:10:41.034Z,72.70
2017-11-01T21:13:08.541Z,72.60
2017-11-01T21:15:36.095Z,72.20
2017-11-01T21:18:03.618Z,71.60
2017-11-01T21:20:31.164Z,71.30
2017-11-01T21:22:58.667Z,71.20
2017-11-01T21:25:26.225Z,71.20
2017-11-01T21:27:53.727Z,71.30
2017-11-01T21:30:22.042Z,71.90
2017-11-01T21:32:49.544Z,71.90
2017-11-01T21:35:17.087Z,72.40
2017-11-01T21:37:44.598Z,72.60
2017-11-01T21:40:12.158Z,72.30
2017-11-01T21:42:40.590Z,72.60
2017-11-01T21:45:08.135Z,72.90
2017-11-01T21:47:35.641Z,73.00
2017-11-01T21:50:03.972Z,73.20
2017-11-01T21:52:31.476Z,73.10
2017-11-01T21:54:58.983Z,74.70
2017-11-01T21:57:26.524Z,74.60
2017-11-01T21:59:54.027Z,74.40
2017-11-01T22:02:22.332Z,74.50
2017-11-01T22:04:49.826Z,74.50
2017-11-01T22:07:17.363Z,74.80
2017-11-01T22:09:44.862Z,74.80
2017-11-01T22:12:12.403Z,75.10
2017-11-01T22:14:40.667Z,74.70
2017-11-01T22:17:08.173Z,74.70
2017-11-01T22:19:35.703Z,74.60
2017-11-01T22:22:03.199Z,74.50
2017-11-01T22:24:31.505Z,73.30
2017-11-01T22:26:58.998Z,73.30
2017-11-01T22:29:26.523Z,73.40
2017-11-01T22:31:54.030Z,73.50
2017-11-01T22:34:21.565Z,73.30
2017-11-01T22:36:49.063Z,73.20
2017-11-01T22:39:16.595Z,73.00
2017-11-01T22:41:44.108Z,74.50
2017-11-01T22:44:11.651Z,75.00
2017-11-01T22:46:39.161Z,75.00
2017-11-01T22:49:06.655Z,74.90
2017-11-01T22:51:34.194Z,75.30
2017-11-01T22:54:01.692Z,75.20
2017-11-01T22:56:29.228Z,75.50
2017-11-01T22:58:56.723Z,75.80
2017-11-01T23:01:24.256Z,75.70
2017-11-01T23:03:52.541Z,75.30
2017-11-01T23:06:20.063Z,75.30
2017-11-01T23:08:47.563Z,75.50
2017-11-01T23:11:15.110Z,75.60
2017-11-01T23:13:42.616Z,75.80
2017-11-01T23:16:10.139Z,76.20
2017-11-01T23:18:37.701Z,76.20
2017-11-01T23:21:05.254Z,76.40
2017-11-01T23:23:32.755Z,76.70
2017-11-01T23:26:00.263Z,77.20
2017-11-01T23:28:27.788Z,77.40
2017-11-01T23:30:55.277Z,77.30
2017-11-01T23:33:22.835Z,77.00
2017-11-01T23:35:50.322Z,77.00
2017-11-01T23:38:18.695Z,76.50
2017-11-01T23:40:46.187Z,76.60
2017-11-01T23:43:13.749Z,76.60
2017-11-01T23:45:41.251Z,76.60
2017-11-01T23:48:08.782Z,75.80
2017-11-01T23:50:36.279Z,75.90
2017-11-01T23:53:03.809Z,76.20
2017-11-01T23:55:32.067Z,76.30
2017-11-01T23:57:59.615Z,76.30
